Time;durP1;ratioP1;P1;durP2;ratioP2;P2;SDS_P1;SDS_P2;PMS_P1;PMS_P2;Temp;Humidity;BMP_temperature;BMP_pressure;BME280_temperature;BME280_humidity;BME280_pressure;Samples;Min_cycle;Max_cycle;Signal;HPM_P1;HPM_P2
2021/04/23 00:02:24;;;;;;;5.23;4.53;;;5.10;99.90;3.60;97235.00;;;;5078677;28;20445;-68
2021/04/23 00:05:13;;;;;;;4.90;4.33;;;5.00;99.90;3.80;97242.00;;;;5083837;28;20437;-69
2021/04/23 00:08:01;;;;;;;6.13;4.07;;;4.90;99.90;3.90;97244.00;;;;5082237;28;20433;-67
2021/04/23 00:10:55;;;;;;;6.23;3.93;;;4.90;99.90;4.00;97239.00;;;;5085542;28;20868;-68
2021/04/23 00:13:44;;;;;;;5.03;3.73;;;4.90;99.90;3.90;97239.00;;;;5082845;28;20430;-67
2021/04/23 00:16:32;;;;;;;6.03;4.43;;;4.90;99.90;4.00;97246.00;;;;5083262;28;20804;-69
2021/04/23 00:19:24;;;;;;;3.37;3.03;;;5.00;99.90;3.80;97244.00;;;;5082925;28;20852;-69
2021/04/23 00:22:13;;;;;;;3.80;3.50;;;5.00;99.90;3.90;97249.00;;;;5080425;28;20456;-68
2021/04/23 00:25:00;;;;;;;5.90;3.63;;;4.90;99.90;4.10;97256.00;;;;5082390;28;20425;-69
2021/04/23 00:27:48;;;;;;;4.00;3.17;;;5.00;99.90;4.00;97242.00;;;;5083286;28;20472;-69
2021/04/23 00:30:42;;;;;;;5.00;4.10;;;5.00;99.90;3.60;97233.00;;;;5084561;28;20438;-67
2021/04/23 00:33:31;;;;;;;3.57;3.27;;;5.00;99.90;3.60;97244.00;;;;5084953;28;20421;-69
2021/04/23 00:36:19;;;;;;;6.87;3.73;;;4.90;99.90;3.30;97238.00;;;;5082986;28;20437;-68
2021/04/23 00:39:07;;;;;;;4.27;3.87;;;5.10;99.90;3.40;97246.00;;;;5081158;28;20866;-69
2021/04/23 00:41:55;;;;;;;9.10;3.93;;;4.60;99.90;3.40;97257.00;;;;5084099;28;20449;-69
2021/04/23 00:44:42;;;;;;;6.40;4.67;;;4.60;99.90;3.10;97240.00;;;;5083725;28;20682;-67
2021/04/23 00:47:31;;;;;;;6.43;3.87;;;4.50;99.90;3.10;97241.00;;;;5081032;28;20420;-68
2021/04/23 00:50:30;;;;;;;9.23;4.10;;;4.30;99.90;3.20;97248.00;;;;5086657;28;20819;-68
2021/04/23 00:53:22;;;;;;;6.60;4.77;;;4.30;99.90;3.10;97248.00;;;;5087751;28;20956;-68
2021/04/23 00:56:18;;;;;;;5.17;4.03;;;4.30;99.90;2.90;97261.00;;;;5086964;28;20429;-69
2021/04/23 00:59:09;;;;;;;6.30;3.93;;;4.20;99.90;2.90;97248.00;;;;5086638;28;20472;-68
2021/04/23 01:02:04;;;;;;;6.07;3.87;;;4.20;99.90;2.90;97249.00;;;;5087438;28;20842;-68
2021/04/23 01:04:53;;;;;;;4.53;4.13;;;4.10;99.90;2.90;97252.00;;;;5084983;28;20422;-68
2021/04/23 01:07:45;;;;;;;5.00;3.53;;;4.00;99.90;2.80;97253.00;;;;5086670;28;20418;-69
2021/04/23 01:10:33;;;;;;;7.37;4.17;;;4.00;99.90;2.50;97253.00;;;;5088143;28;20452;-67
2021/04/23 01:13:22;;;;;;;5.27;3.97;;;3.90;99.90;2.70;97263.00;;;;5086063;28;20437;-68
2021/04/23 01:16:14;;;;;;;5.17;4.67;;;3.90;99.90;2.70;97266.00;;;;5087270;28;20414;-68
2021/04/23 01:19:05;;;;;;;4.20;3.80;;;3.80;99.90;2.80;97266.00;;;;5085407;28;20425;-68
2021/04/23 01:21:55;;;;;;;5.83;4.73;;;3.80;99.90;2.60;97267.00;;;;5085582;28;20454;-67
2021/04/23 01:24:44;;;;;;;4.73;4.10;;;3.80;99.90;2.40;97273.00;;;;5086792;28;20429;-67
2021/04/23 01:27:32;;;;;;;5.40;4.80;;;3.70;99.90;2.10;97262.00;;;;5086307;28;20426;-68
2021/04/23 01:30:23;;;;;;;5.43;4.10;;;3.30;99.90;2.20;97265.00;;;;5086269;28;20449;-67
2021/04/23 01:33:10;;;;;;;7.63;4.50;;;3.50;99.90;2.20;97267.00;;;;5086632;28;20428;-69
2021/04/23 01:35:58;;;;;;;13.30;4.10;;;3.40;99.90;2.30;97275.00;;;;5084661;28;20464;-69
2021/04/23 01:38:49;;;;;;;4.73;4.30;;;3.40;99.90;2.00;97277.00;;;;5086435;28;20426;-69
2021/04/23 01:41:38;;;;;;;7.40;4.47;;;3.40;99.90;2.10;97286.00;;;;5086005;28;20583;-69
2021/04/23 01:44:30;;;;;;;7.20;4.37;;;3.30;99.90;2.10;97289.00;;;;5084031;28;20454;-68
2021/04/23 01:47:18;;;;;;;6.03;3.27;;;3.30;99.90;2.00;97293.00;;;;5086248;28;20445;-65
2021/04/23 01:50:12;;;;;;;6.03;4.50;;;3.30;99.90;2.00;97285.00;;;;5086105;28;20433;-69
2021/04/23 01:53:00;;;;;;;4.57;4.17;;;3.20;99.90;1.80;97295.00;;;;5087322;28;20459;-69
2021/04/23 01:55:49;;;;;;;5.20;4.17;;;3.20;99.90;1.90;97294.00;;;;5085263;28;20433;-67
2021/04/23 01:58:39;;;;;;;5.77;4.27;;;3.10;99.90;1.80;97306.00;;;;5085352;28;20514;-68
2021/04/23 02:01:27;;;;;;;6.30;4.67;;;3.00;99.90;1.70;97298.00;;;;5086434;28;20477;-70
2021/04/23 02:04:17;;;;;;;5.73;4.43;;;3.00;99.90;1.70;97304.00;;;;5086542;28;20441;-69
2021/04/23 02:07:08;;;;;;;6.13;4.20;;;2.90;99.90;1.80;97293.00;;;;5086550;28;20460;-67
2021/04/23 02:09:56;;;;;;;5.67;4.83;;;2.90;99.90;1.40;97295.00;;;;5086410;28;20424;-69
2021/04/23 02:12:46;;;;;;;4.33;3.93;;;2.80;99.90;1.60;97301.00;;;;5086315;28;20437;-69
2021/04/23 02:15:34;;;;;;;5.63;4.23;;;2.80;99.90;1.50;97312.00;;;;5086632;28;20441;-69
2021/04/23 02:18:23;;;;;;;4.30;3.93;;;2.70;99.90;1.50;97306.00;;;;5083854;28;20449;-68
2021/04/23 02:21:12;;;;;;;5.97;4.50;;;2.70;99.90;1.50;97307.00;;;;5085876;28;20469;-66
2021/04/23 02:24:00;;;;;;;7.90;4.00;;;2.70;99.90;1.60;97315.00;;;;5086370;28;20422;-68
2021/04/23 02:26:48;;;;;;;7.23;4.83;;;2.70;99.90;1.80;97316.00;;;;5084792;28;20437;-69
2021/04/23 02:29:37;;;;;;;5.60;4.70;;;2.80;99.90;1.80;97320.00;;;;5083054;28;20437;-67
2021/04/23 02:32:25;;;;;;;4.83;3.90;;;2.80;99.90;1.90;97319.00;;;;5085730;28;20850;-68
2021/04/23 02:35:15;;;;;;;4.93;4.47;;;2.80;99.90;1.60;97323.00;;;;5085096;28;20426;-68
2021/04/23 02:38:04;;;;;;;4.13;3.73;;;2.90;99.90;1.50;97319.00;;;;5084474;28;20433;-67
2021/04/23 02:40:54;;;;;;;7.20;4.50;;;2.80;99.90;1.20;97316.00;;;;5084643;28;20814;-66
2021/04/23 02:43:47;;;;;;;5.80;4.00;;;3.40;99.90;1.10;97316.00;;;;5085595;28;20425;-68
2021/04/23 02:46:37;;;;;;;7.13;4.77;;;2.60;99.90;1.00;97318.00;;;;5084808;28;20433;-68
2021/04/23 02:49:25;;;;;;;6.20;4.67;;;2.40;99.90;0.90;97322.00;;;;5084096;28;20441;-67
2021/04/23 02:52:15;;;;;;;5.03;4.10;;;2.30;99.90;0.70;97323.00;;;;5079495;28;20963;-69
2021/04/23 02:55:05;;;;;;;5.47;4.30;;;2.30;99.90;1.00;97322.00;;;;5084787;28;20422;-69
2021/04/23 02:58:00;;;;;;;4.37;3.97;;;2.20;99.90;0.90;97325.00;;;;5082986;28;20418;-69
2021/04/23 03:00:51;;;;;;;5.07;4.00;;;2.20;99.90;0.90;97325.00;;;;5084526;28;20473;-68
2021/04/23 03:03:41;;;;;;;5.53;4.10;;;2.10;99.90;0.90;97320.00;;;;5082437;28;20437;-68
2021/04/23 03:06:29;;;;;;;10.73;4.63;;;2.10;99.90;1.00;97324.00;;;;5084936;28;20437;-66
2021/04/23 03:09:16;;;;;;;4.17;3.83;;;2.10;99.90;1.10;97328.00;;;;5084572;28;20428;-69
2021/04/23 03:12:06;;;;;;;5.40;4.23;;;2.10;99.90;1.00;97322.00;;;;5082799;28;20453;-69
2021/04/23 03:14:54;;;;;;;7.57;4.70;;;2.20;99.90;0.70;97326.00;;;;5084596;28;20437;-68
2021/04/23 03:17:41;;;;;;;6.27;4.43;;;2.20;99.90;0.50;97334.00;;;;5085848;27;20426;-67
2021/04/23 03:20:31;;;;;;;4.33;3.93;;;2.00;99.90;0.70;97325.00;;;;5085605;27;20469;-69
2021/04/23 03:23:19;;;;;;;9.30;4.47;;;1.90;99.90;0.80;97338.00;;;;5082257;28;20434;-68
2021/04/23 03:26:10;;;;;;;8.07;3.67;;;1.90;99.90;0.60;97335.00;;;;5085464;28;20414;-68
2021/04/23 03:28:58;;;;;;;10.40;5.07;;;1.90;99.90;0.10;97338.00;;;;5082549;28;20457;-68
2021/04/23 03:31:46;;;;;;;6.67;4.00;;;1.80;99.90;0.10;97339.00;;;;5084454;28;20437;-68
2021/04/23 03:34:34;;;;;;;9.80;4.97;;;1.60;99.90;0.40;97345.00;;;;5079369;28;20433;-68
2021/04/23 03:37:24;;;;;;;7.37;4.77;;;1.60;99.90;0.30;97343.00;;;;5083990;28;20429;-69
2021/04/23 03:40:16;;;;;;;4.27;3.80;;;1.60;99.90;0.30;97340.00;;;;5081681;28;20473;-68
2021/04/23 03:43:06;;;;;;;7.47;4.10;;;1.60;99.90;0.30;97348.00;;;;5083593;28;20448;-68
2021/04/23 03:45:54;;;;;;;5.73;4.70;;;1.60;99.90;0.40;97345.00;;;;5084426;28;20438;-68
2021/04/23 03:48:43;;;;;;;5.87;3.80;;;1.60;99.90;0.60;97352.00;;;;5082500;28;20486;-69
2021/04/23 03:51:31;;;;;;;4.53;4.03;;;1.60;99.90;0.30;97351.00;;;;5085185;28;20465;-69
2021/04/23 03:54:20;;;;;;;5.17;4.50;;;1.70;99.90;0.10;97354.00;;;;5075531;28;21369;-68
2021/04/23 03:57:08;;;;;;;6.53;4.40;;;1.60;99.90;0.20;97355.00;;;;5085852;28;20910;-67
2021/04/23 03:59:56;;;;;;;4.97;4.33;;;1.50;99.90;0.40;97369.00;;;;5085134;28;20465;-68
2021/04/23 04:02:44;;;;;;;6.33;4.53;;;1.50;99.90;0.40;97363.00;;;;5083725;28;20461;-68
2021/04/23 04:05:33;;;;;;;7.93;4.73;;;1.50;99.90;0.40;97358.00;;;;5083551;28;20443;-69
2021/04/23 04:08:21;;;;;;;4.17;3.77;;;1.60;99.90;0.50;97374.00;;;;5086849;27;20803;-69
2021/04/23 04:11:10;;;;;;;4.63;4.17;;;1.60;99.90;0.10;97378.00;;;;5087355;28;20452;-69
2021/04/23 04:13:58;;;;;;;6.10;4.10;;;1.60;99.90;-0.10;97366.00;;;;5084197;28;20417;-68
2021/04/23 04:16:46;;;;;;;7.47;3.60;;;1.40;99.90;0.20;97366.00;;;;5092848;28;20436;-70
2021/04/23 04:19:34;;;;;;;11.97;4.63;;;1.40;99.90;0.50;97368.00;;;;5104233;28;20425;-68
2021/04/23 04:22:22;;;;;;;5.00;4.00;;;1.50;99.90;0.60;97372.00;;;;5105845;28;20459;-68
2021/04/23 04:25:14;;;;;;;5.23;3.63;;;1.60;99.90;0.30;97371.00;;;;5103837;28;20425;-68
2021/04/23 04:28:04;;;;;;;5.40;4.43;;;1.60;99.90;0.30;97380.00;;;;5107298;28;20454;-68
2021/04/23 04:30:52;;;;;;;4.97;4.33;;;1.60;99.90;0.40;97387.00;;;;5107974;28;20464;-69
2021/04/23 04:33:48;;;;;;;7.10;4.30;;;1.60;99.90;0.50;97386.00;;;;5105160;28;20447;-68
2021/04/23 04:36:36;;;;;;;3.37;3.03;;;1.60;99.90;0.20;97387.00;;;;5103473;28;20435;-66
2021/04/23 04:39:24;;;;;;;5.23;4.73;;;1.60;99.90;0.00;97390.00;;;;5098817;28;20457;-69
2021/04/23 04:42:12;;;;;;;5.10;4.10;;;1.50;99.90;0.10;97392.00;;;;5100345;28;20452;-70
2021/04/23 04:45:01;;;;;;;9.77;5.50;;;1.40;99.90;0.40;97387.00;;;;5109201;28;20428;-68
2021/04/23 04:47:50;;;;;;;6.40;4.27;;;1.40;99.90;0.50;97392.00;;;;5100107;27;20441;-67
2021/04/23 04:50:42;;;;;;;5.47;4.70;;;1.50;99.90;0.30;97400.00;;;;5100603;27;20453;-69
2021/04/23 04:53:30;;;;;;;6.90;4.80;;;1.60;99.90;0.30;97410.00;;;;5105571;28;20433;-67
2021/04/23 04:56:18;;;;;;;7.63;4.80;;;1.60;99.90;0.40;97405.00;;;;5101926;28;20436;-69
2021/04/23 04:59:06;;;;;;;6.37;5.03;;;1.60;99.90;0.40;97406.00;;;;5105476;28;20432;-69
2021/04/23 05:01:56;;;;;;;12.60;5.47;;;1.60;99.90;0.30;97411.00;;;;5108585;27;20471;-68
2021/04/23 05:04:44;;;;;;;8.77;6.73;;;1.60;99.90;0.60;97421.00;;;;5108316;28;20424;-67
2021/04/23 05:07:32;;;;;;;9.97;7.37;;;1.60;99.90;0.80;97413.00;;;;5107970;28;20789;-69
2021/04/23 05:10:21;;;;;;;8.13;5.03;;;1.80;99.90;1.10;97409.00;;;;5108025;28;20437;-68
2021/04/23 05:13:09;;;;;;;4.83;4.27;;;1.90;99.90;1.10;97418.00;;;;5106982;28;20424;-68
2021/04/23 05:15:58;;;;;;;5.47;3.77;;;2.10;99.90;1.00;97419.00;;;;5108329;28;20441;-68
2021/04/23 05:18:46;;;;;;;6.63;4.60;;;2.10;99.90;0.90;97428.00;;;;5106694;28;20425;-67
2021/04/23 05:21:35;;;;;;;6.63;4.43;;;2.20;99.90;1.00;97419.00;;;;5108427;28;20487;-68
2021/04/23 05:24:23;;;;;;;5.23;4.57;;;2.20;99.90;1.20;97436.00;;;;5104053;28;20437;-68
2021/04/23 05:27:11;;;;;;;8.83;4.60;;;2.20;99.90;1.40;97433.00;;;;5101750;28;20426;-67
2021/04/23 05:29:59;;;;;;;5.10;3.53;;;2.40;99.90;1.30;97427.00;;;;5108818;27;20436;-68
2021/04/23 05:32:48;;;;;;;5.10;3.87;;;2.40;99.90;1.40;97421.00;;;;5107848;28;20437;-68
2021/04/23 05:35:40;;;;;;;9.77;4.77;;;2.50;99.90;1.60;97431.00;;;;5093727;28;20432;-68
2021/04/23 05:38:28;;;;;;;5.93;4.33;;;2.50;99.90;1.60;97428.00;;;;5106075;28;20424;-66
2021/04/23 05:41:16;;;;;;;4.30;3.80;;;2.60;99.90;1.80;97436.00;;;;5099506;28;20476;-67
2021/04/23 05:44:04;;;;;;;6.17;5.57;;;2.80;99.90;1.90;97436.00;;;;5103502;27;20426;-68
2021/04/23 05:46:52;;;;;;;9.17;4.33;;;2.80;99.90;2.00;97440.00;;;;5099948;28;20433;-66
2021/04/23 05:49:40;;;;;;;6.27;4.20;;;3.00;99.90;2.10;97438.00;;;;5102319;28;20433;-66
2021/04/23 05:52:29;;;;;;;4.67;3.83;;;3.10;99.90;2.30;97423.00;;;;5103301;28;20480;-68
2021/04/23 05:55:21;;;;;;;7.43;4.10;;;3.20;99.90;2.50;97436.00;;;;5101801;28;20436;-69
2021/04/23 05:58:10;;;;;;;7.57;4.13;;;3.30;99.90;2.70;97442.00;;;;5107104;28;20440;-67
2021/04/23 06:00:58;;;;;;;6.03;4.10;;;3.50;99.90;2.90;97448.00;;;;5107521;28;20480;-68
2021/04/23 06:03:47;;;;;;;7.47;4.00;;;3.60;99.90;3.20;97447.00;;;;5107525;28;20433;-69
2021/04/23 06:06:35;;;;;;;3.47;3.17;;;3.80;99.90;3.40;97453.00;;;;5107322;28;20448;-66
2021/04/23 06:09:23;;;;;;;5.13;4.33;;;4.10;99.90;3.50;97454.00;;;;5106366;28;20433;-67
2021/04/23 06:12:12;;;;;;;5.43;4.00;;;4.20;99.90;3.70;97437.00;;;;5110969;27;20463;-68
2021/04/23 06:15:00;;;;;;;5.13;4.50;;;4.40;99.90;3.90;97452.00;;;;5106794;28;21337;-68
2021/04/23 06:17:49;;;;;;;5.93;4.13;;;4.60;99.90;4.10;97446.00;;;;5101950;28;20424;-69
2021/04/23 06:20:37;;;;;;;10.53;3.90;;;4.70;99.90;4.30;97446.00;;;;5108606;27;20891;-68
2021/04/23 06:23:25;;;;;;;8.93;4.40;;;5.00;99.90;4.70;97462.00;;;;5091206;28;20460;-67
2021/04/23 06:26:13;;;;;;;8.97;4.43;;;5.20;99.90;5.00;97448.00;;;;5101778;28;20424;-66
2021/04/23 06:29:01;;;;;;;11.60;5.13;;;5.40;99.90;5.10;97453.00;;;;5100401;28;20445;-66
2021/04/23 06:31:49;;;;;;;8.30;4.87;;;5.70;99.90;5.30;97464.00;;;;5106030;28;20445;-68
2021/04/23 06:34:37;;;;;;;8.43;4.83;;;5.90;99.90;5.60;97469.00;;;;5092410;28;20199;-69
2021/04/23 06:37:25;;;;;;;17.47;4.93;;;6.10;99.90;5.70;97468.00;;;;5102349;28;20233;-65
2021/04/23 06:40:16;;;;;;;8.07;4.60;;;6.30;99.90;6.00;97462.00;;;;5104386;28;20558;-69
2021/04/23 06:43:05;;;;;;;6.00;4.07;;;6.50;99.90;6.20;97458.00;;;;5096539;28;20198;-68
2021/04/23 06:45:54;;;;;;;9.00;5.27;;;6.70;99.90;6.60;97465.00;;;;5105118;28;20205;-68
2021/04/23 06:48:42;;;;;;;8.67;4.77;;;7.00;99.90;7.00;97457.00;;;;5105691;28;20206;-67
2021/04/23 06:51:31;;;;;;;9.77;5.50;;;7.20;99.90;7.20;97467.00;;;;5106495;28;20241;-68
2021/04/23 06:54:19;;;;;;;6.77;5.17;;;7.50;99.90;7.10;97461.00;;;;5107263;28;20217;-68
2021/04/23 06:57:07;;;;;;;14.23;6.50;;;7.80;99.90;7.40;97455.00;;;;5086445;28;20558;-67
2021/04/23 06:59:56;;;;;;;8.13;6.10;;;7.90;99.90;7.80;97460.00;;;;5101777;28;20199;-67
2021/04/23 07:02:44;;;;;;;7.63;6.27;;;8.20;99.90;8.00;97464.00;;;;5106551;28;20574;-67
2021/04/23 07:05:32;;;;;;;13.87;5.80;;;8.40;99.90;8.20;97465.00;;;;5099887;28;20195;-67
2021/04/23 07:08:20;;;;;;;9.87;6.33;;;8.60;99.90;8.30;97461.00;;;;5105391;28;20198;-67
2021/04/23 07:11:08;;;;;;;12.70;6.37;;;8.80;99.90;8.60;97460.00;;;;5105090;28;20230;-67
2021/04/23 07:13:56;;;;;;;9.07;6.53;;;9.00;99.90;8.70;97461.00;;;;5104541;28;20199;-67
2021/04/23 07:16:45;;;;;;;10.30;6.77;;;9.20;99.90;8.90;97453.00;;;;5107129;28;20587;-66
2021/04/23 07:19:33;;;;;;;11.90;8.27;;;9.40;99.90;9.10;97456.00;;;;5105027;28;20206;-68
2021/04/23 07:22:21;;;;;;;13.67;9.57;;;9.60;99.90;9.40;97451.00;;;;5102641;28;20218;-68
2021/04/23 07:25:11;;;;;;;12.13;9.33;;;9.80;99.90;9.50;97452.00;;;;5092764;28;20199;-68
2021/04/23 07:28:01;;;;;;;13.63;10.07;;;9.90;99.90;9.60;97458.00;;;;5097838;28;20841;-69
2021/04/23 07:30:49;;;;;;;13.93;10.00;;;10.10;99.90;9.70;97461.00;;;;5099198;28;20229;-66
2021/04/23 07:33:38;;;;;;;16.20;8.23;;;10.30;99.90;9.70;97456.00;;;;5101212;28;20217;-67
2021/04/23 07:36:26;;;;;;;13.23;9.60;;;10.40;99.90;10.00;97459.00;;;;5096260;28;20210;-66
2021/04/23 07:39:14;;;;;;;10.23;7.43;;;10.50;99.90;10.10;97459.00;;;;5103103;28;20585;-67
2021/04/23 07:42:02;;;;;;;12.50;8.00;;;10.60;97.90;10.30;97466.00;;;;5108404;27;20603;-67
2021/04/23 07:44:50;;;;;;;11.80;8.53;;;10.80;97.00;10.20;97456.00;;;;5105756;28;20595;-68
2021/04/23 07:47:38;;;;;;;14.93;8.60;;;10.90;96.40;9.90;97469.00;;;;5116851;28;20696;-68
2021/04/23 07:50:28;;;;;;;11.67;7.70;;;10.80;94.60;10.30;97466.00;;;;5106805;28;20229;-68
2021/04/23 07:53:19;;;;;;;12.90;6.97;;;10.90;93.40;10.40;97466.00;;;;5106538;28;20198;-69
2021/04/23 07:56:06;;;;;;;8.90;6.03;;;11.00;91.50;10.70;97470.00;;;;5106129;28;20198;-68
2021/04/23 07:58:58;;;;;;;13.00;6.77;;;11.10;88.80;10.80;97455.00;;;;5104691;27;20202;-68
2021/04/23 08:01:46;;;;;;;10.23;7.20;;;11.30;85.50;10.90;97461.00;;;;5107338;28;20234;-67
2021/04/23 08:04:35;;;;;;;10.27;6.80;;;11.40;83.00;11.30;97463.00;;;;5107774;28;20195;-69
2021/04/23 08:07:24;;;;;;;11.03;7.17;;;11.60;85.20;11.40;97455.00;;;;5099692;28;20205;-68
2021/04/23 08:10:14;;;;;;;12.67;6.30;;;11.80;83.40;11.50;97457.00;;;;5100792;28;20876;-69
2021/04/23 08:13:02;;;;;;;11.83;7.60;;;11.90;81.40;11.60;97458.00;;;;5104196;28;20682;-68
2021/04/23 08:15:51;;;;;;;9.40;7.23;;;12.10;80.20;11.80;97458.00;;;;5105918;27;20217;-67
2021/04/23 08:18:39;;;;;;;11.10;7.30;;;12.30;79.60;11.90;97459.00;;;;5104015;28;20213;-67
2021/04/23 08:21:28;;;;;;;10.83;7.10;;;12.40;78.20;12.10;97453.00;;;;5107116;27;20237;-67
2021/04/23 08:24:17;;;;;;;11.00;7.03;;;12.50;75.70;11.60;97442.00;;;;5106138;28;20206;-68
2021/04/23 08:27:06;;;;;;;10.93;6.93;;;12.50;72.90;11.40;97439.00;;;;5106711;28;20222;-70
2021/04/23 08:29:54;;;;;;;7.77;5.70;;;12.50;71.90;12.10;97442.00;;;;5104924;28;20263;-69
2021/04/23 08:32:42;;;;;;;12.77;6.77;;;12.50;72.50;12.30;97441.00;;;;5104345;27;20554;-66
2021/04/23 08:35:30;;;;;;;10.03;5.83;;;12.70;72.60;12.40;97448.00;;;;5104467;27;20579;-67
2021/04/23 08:38:23;;;;;;;10.93;7.03;;;12.80;69.00;12.80;97439.00;;;;5103855;28;20669;-65
2021/04/23 08:41:12;;;;;;;7.67;6.47;;;13.00;70.40;12.90;97433.00;;;;5106411;27;20270;-65
2021/04/23 08:44:00;;;;;;;7.23;6.07;;;13.20;70.70;13.00;97442.00;;;;5105527;27;20598;-67
2021/04/23 08:46:48;;;;;;;8.00;5.70;;;13.40;68.20;12.80;97428.00;;;;5105451;28;20198;-68
2021/04/23 08:49:37;;;;;;;9.77;6.00;;;13.50;65.40;13.10;97438.00;;;;5104629;28;20210;-69
2021/04/23 08:52:26;;;;;;;10.63;5.70;;;13.60;65.80;13.00;97430.00;;;;5105143;28;20225;-68
2021/04/23 08:55:17;;;;;;;12.03;5.67;;;13.70;63.50;13.00;97426.00;;;;5105097;27;20221;-67
2021/04/23 08:58:08;;;;;;;7.93;5.13;;;13.70;61.70;13.50;97434.00;;;;5104717;27;20206;-67
2021/04/23 09:00:56;;;;;;;9.00;4.90;;;13.80;61.90;13.40;97428.00;;;;5105489;27;20226;-68
2021/04/23 09:03:44;;;;;;;10.57;4.90;;;14.00;61.30;13.60;97421.00;;;;5104408;28;20190;-68
2021/04/23 09:06:32;;;;;;;6.90;4.50;;;14.10;61.10;13.60;97417.00;;;;5104520;28;20195;-67
2021/04/23 09:09:20;;;;;;;8.33;4.00;;;14.20;59.10;14.00;97419.00;;;;5102853;28;20202;-67
2021/04/23 09:12:20;;;;;;;11.03;4.47;;;14.30;58.20;13.70;97419.00;;;;5103638;28;20874;-68
2021/04/23 09:15:26;;;;;;;8.83;4.90;;;14.30;57.00;13.80;97409.00;;;;5107778;28;20202;-68
2021/04/23 09:18:17;;;;;;;8.10;5.50;;;14.40;57.70;14.20;97409.00;;;;5106101;28;20211;-67
2021/04/23 09:21:05;;;;;;;8.83;4.03;;;14.50;57.00;14.60;97420.00;;;;5104928;27;20227;-67
2021/04/23 09:23:55;;;;;;;6.97;4.73;;;14.70;56.70;14.50;97397.00;;;;5101543;28;20222;-68
2021/04/23 09:26:43;;;;;;;6.07;5.40;;;14.90;56.30;14.60;97399.00;;;;5105412;28;20201;-66
2021/04/23 09:29:38;;;;;;;8.37;4.87;;;15.10;56.30;13.50;97396.00;;;;5108838;27;20210;-67
2021/04/23 09:32:29;;;;;;;8.07;4.60;;;15.00;53.60;14.20;97392.00;;;;5109119;28;20692;-56
2021/04/23 09:35:20;;;;;;;9.77;4.27;;;15.00;55.10;14.90;97396.00;;;;5101277;28;20581;-54
2021/04/23 09:38:08;;;;;;;5.60;3.57;;;15.10;54.90;15.50;97421.00;;;;5108368;28;20199;-52
2021/04/23 09:40:56;;;;;;;6.73;3.80;;;15.30;55.80;14.90;97430.00;;;;5097145;27;20712;-55
2021/04/23 09:43:44;;;;;;;9.60;4.70;;;15.40;55.10;15.40;97400.00;;;;5107757;28;20214;-54
2021/04/23 09:46:34;;;;;;;4.73;4.07;;;15.60;54.40;14.30;97374.00;;;;5105088;28;20650;-58
2021/04/23 09:49:23;;;;;;;17.33;6.60;;;15.60;52.00;13.70;97372.00;;;;5104194;28;20207;-56
2021/04/23 09:52:14;;;;;;;8.83;4.67;;;15.20;52.40;14.10;97371.00;;;;5105766;28;20708;-58
2021/04/23 09:55:03;;;;;;;5.80;4.27;;;15.00;53.40;13.50;97369.00;;;;5104164;28;20203;-54
2021/04/23 09:57:54;;;;;;;6.73;4.60;;;14.70;53.20;13.60;97376.00;;;;5105922;28;20213;-56
2021/04/23 10:00:44;;;;;;;6.37;3.97;;;14.50;53.40;13.70;97375.00;;;;5106281;28;20241;-57
2021/04/23 10:03:32;;;;;;;6.70;4.07;;;14.50;52.30;14.80;97383.00;;;;5105857;27;20206;-57
2021/04/23 10:06:23;;;;;;;5.77;4.03;;;14.70;52.20;15.50;97382.00;;;;5104066;28;20206;-56
2021/04/23 10:09:11;;;;;;;5.37;4.00;;;15.10;52.00;15.30;97374.00;;;;5104118;28;20214;-57
2021/04/23 10:11:59;;;;;;;9.93;4.10;;;15.60;51.50;14.30;97400.00;;;;5104455;28;20226;-57
2021/04/23 10:14:57;;;;;;;7.20;3.67;;;15.60;49.70;14.90;97381.00;;;;5102518;28;20594;-57
2021/04/23 10:17:48;;;;;;;9.60;3.23;;;15.40;50.80;15.20;97356.00;;;;5100242;28;20198;-57
2021/04/23 10:20:38;;;;;;;4.93;3.37;;;15.60;50.40;14.60;97350.00;;;;5101533;28;20226;-55
2021/04/23 10:23:29;;;;;;;4.67;2.87;;;15.60;49.00;14.50;97350.00;;;;5100680;28;20857;-56
2021/04/23 10:26:17;;;;;;;5.10;3.30;;;15.60;47.90;15.50;97353.00;;;;5103600;28;20202;-53
2021/04/23 10:29:05;;;;;;;5.80;3.10;;;15.70;48.60;15.00;97343.00;;;;5105949;28;20214;-57
2021/04/23 10:31:54;;;;;;;3.70;3.10;;;15.80;46.90;15.60;97348.00;;;;5095688;28;20218;-56
2021/04/23 10:34:42;;;;;;;6.07;3.53;;;15.90;47.00;15.40;97362.00;;;;5102927;28;20803;-56
2021/04/23 10:37:32;;;;;;;2.67;2.10;;;15.90;46.30;15.80;97355.00;;;;5104555;27;20869;-58
2021/04/23 10:40:23;;;;;;;4.47;1.90;;;16.10;48.10;15.80;97338.00;;;;5104189;28;20214;-58
2021/04/23 10:43:14;;;;;;;2.30;2.10;;;16.20;45.40;15.50;97376.00;;;;5105345;27;20215;-56
2021/04/23 10:46:09;;;;;;;2.63;1.80;;;16.30;44.30;15.30;97359.00;;;;5100759;28;20210;-61
2021/04/23 10:49:08;;;;;;;4.83;2.00;;;16.10;44.60;16.10;97365.00;;;;5103933;27;20707;-57
2021/04/23 10:52:06;;;;;;;1.73;1.63;;;16.30;44.90;17.00;97316.00;;;;5103922;28;20231;-55
2021/04/23 10:55:05;;;;;;;3.30;1.50;;;16.70;44.30;17.10;97312.00;;;;5100241;28;20571;-55
2021/04/23 10:57:55;;;;;;;2.53;1.43;;;17.20;43.50;17.80;97309.00;;;;5103173;28;20577;-56
2021/04/23 11:00:47;;;;;;;2.37;1.77;;;17.50;42.80;18.70;97313.00;;;;5097948;28;20229;-55
2021/04/23 11:03:36;;;;;;;2.73;1.50;;;18.10;42.20;19.40;97301.00;;;;5100297;28;20198;-55
2021/04/23 11:06:30;;;;;;;5.67;1.77;;;18.60;41.90;20.00;97316.00;;;;5102630;28;20230;-55
2021/04/23 11:09:22;;;;;;;2.77;1.73;;;19.20;41.50;20.60;97313.00;;;;5100931;28;20214;-56
2021/04/23 11:12:16;;;;;;;3.93;1.40;;;19.80;41.90;20.50;97359.00;;;;5101708;28;20236;-57
2021/04/23 11:15:16;;;;;;;4.20;1.63;;;20.10;39.70;19.00;97314.00;;;;5103124;28;20203;-57
2021/04/23 11:18:28;;;;;;;2.70;1.40;;;20.00;40.10;20.20;97311.00;;;;5101778;28;20277;-56
2021/04/23 11:21:38;;;;;;;3.70;3.33;;;20.20;39.80;20.90;97308.00;;;;5104091;27;20230;-58
2021/04/23 11:24:27;;;;;;;7.13;3.40;;;20.60;41.70;19.70;97286.00;;;;5101447;28;20207;-57
2021/04/23 11:27:15;;;;;;;5.40;2.93;;;20.70;42.80;18.00;97288.00;;;;5103381;28;20791;-54
2021/04/23 11:30:10;;;;;;;4.60;2.67;;;20.00;40.50;19.80;97293.00;;;;5102697;28;20251;-55
2021/04/23 11:32:59;;;;;;;4.83;2.60;;;20.00;41.80;19.10;97287.00;;;;5100889;28;20613;-58
2021/04/23 11:35:47;;;;;;;6.23;2.57;;;20.20;40.30;19.80;97275.00;;;;5097708;28;20700;-58
2021/04/23 11:38:55;;;;;;;4.57;2.00;;;20.20;41.50;19.20;97258.00;;;;5101261;28;20198;-56
2021/04/23 11:42:10;;;;;;;4.07;1.60;;;20.30;39.00;21.00;97265.00;;;;5106393;28;20271;-55
2021/04/23 11:45:08;;;;;;;2.43;1.00;;;20.60;39.50;21.30;97267.00;;;;5103671;28;20210;-56
2021/04/23 11:47:59;;;;;;;1.60;1.23;;;21.00;37.20;20.50;97329.00;;;;5094751;28;20203;-55
2021/04/23 11:51:03;;;;;;;2.53;1.20;;;20.90;35.90;17.70;97240.00;;;;5086347;28;20226;-51
2021/04/23 11:53:56;;;;;;;3.43;1.30;;;20.10;34.90;20.20;97232.00;;;;5095709;28;20203;-55
2021/04/23 11:56:47;;;;;;;3.47;1.50;;;20.20;36.50;19.90;97234.00;;;;5094311;28;20693;-52
2021/04/23 11:59:36;;;;;;;5.00;1.40;;;20.20;36.50;20.60;97238.00;;;;5101503;28;20673;-52
2021/04/23 12:02:53;;;;;;;4.90;1.43;;;20.40;36.30;20.00;97246.00;;;;5098709;28;20597;-54
2021/04/23 12:05:43;;;;;;;3.10;1.30;;;20.60;35.10;21.50;97326.00;;;;5100605;28;20589;-56
2021/04/23 12:08:33;;;;;;;2.97;1.50;;;20.90;36.00;20.50;97305.00;;;;5089772;28;20214;-57
2021/04/23 12:11:21;;;;;;;7.27;1.30;;;20.80;35.60;21.10;97244.00;;;;5101124;28;20692;-54
2021/04/23 12:14:08;;;;;;;3.37;1.10;;;21.00;35.40;22.00;97246.00;;;;5096677;28;20210;-55
2021/04/23 12:16:56;;;;;;;6.03;1.93;;;21.40;36.60;21.90;97226.00;;;;5102205;28;20688;-54
2021/04/23 12:19:45;;;;;;;1.90;1.40;;;21.80;35.90;22.60;97241.00;;;;5096053;28;20775;-54
2021/04/23 12:22:40;;;;;;;1.07;0.83;;;22.20;34.30;22.60;97252.00;;;;5099657;28;20580;-55
2021/04/23 12:25:33;;;;;;;1.93;1.10;;;22.40;34.40;23.00;97326.00;;;;5102453;28;20203;-53
2021/04/23 12:28:34;;;;;;;2.30;1.20;;;22.60;35.80;22.30;97295.00;;;;5101624;28;20584;-58
2021/04/23 12:31:24;;;;;;;1.23;0.80;;;22.60;34.20;22.40;97274.00;;;;5102266;28;20219;-56
2021/04/23 12:34:15;;;;;;;1.60;1.00;;;22.60;34.40;20.60;97315.00;;;;5101847;28;20209;-59
2021/04/23 12:37:03;;;;;;;2.37;1.53;;;22.20;33.00;20.80;97232.00;;;;5100861;28;20685;-54
2021/04/23 12:39:52;;;;;;;3.17;1.10;;;21.60;33.60;21.20;97234.00;;;;5102001;28;20229;-58
2021/04/23 12:42:41;;;;;;;3.00;1.30;;;21.40;33.40;22.30;97234.00;;;;5099768;28;20194;-56
2021/04/23 12:45:31;;;;;;;3.60;1.20;;;21.60;35.40;23.10;97227.00;;;;5102290;28;20662;-57